Time;durP1;ratioP1;P1;durP2;ratioP2;P2;SDS_P1;SDS_P2;PMS_P1;PMS_P2;Temp;Humidity;BMP_temperature;BMP_pressure;BME280_temperature;BME280_humidity;BME280_pressure;Samples;Min_cycle;Max_cycle;Signal;HPM_P1;HPM_P2
2022/02/22 00:01:38;;;;;;;27.15;6.43;;;7.20;99.90;;;;;;5095935;28;20020;-73
2022/02/22 00:04:05;;;;;;;30.83;6.22;;;7.30;99.90;;;;;;5095684;28;20399;-72
2022/02/22 00:06:30;;;;;;;30.10;6.45;;;7.30;99.90;;;;;;5095864;28;20035;-72
2022/02/22 00:08:56;;;;;;;42.15;8.52;;;7.30;99.90;;;;;;5095784;28;20441;-73
2022/02/22 00:11:23;;;;;;;30.88;8.00;;;7.30;99.90;;;;;;5095974;28;20028;-73
2022/02/22 00:13:49;;;;;;;32.97;6.30;;;7.30;99.90;;;;;;5094410;28;20028;-73
2022/02/22 00:16:14;;;;;;;35.83;6.45;;;7.20;99.90;;;;;;5095592;28;20031;-72
2022/02/22 00:18:40;;;;;;;33.33;7.57;;;7.20;99.90;;;;;;5095544;28;20030;-74
2022/02/22 00:21:06;;;;;;;30.67;6.28;;;7.10;99.90;;;;;;5094306;28;20122;-73
2022/02/22 00:23:32;;;;;;;31.77;6.50;;;7.00;99.90;;;;;;5095532;28;20016;-74
2022/02/22 00:25:58;;;;;;;30.70;6.30;;;6.80;99.90;;;;;;5095492;28;20547;-73
2022/02/22 00:28:23;;;;;;;28.20;6.93;;;6.70;99.90;;;;;;5094176;28;20031;-73
2022/02/22 00:30:50;;;;;;;33.70;5.65;;;6.70;99.90;;;;;;5095928;28;20020;-73
2022/02/22 00:33:16;;;;;;;24.83;6.13;;;6.70;99.90;;;;;;5095006;28;20020;-73
2022/02/22 00:35:42;;;;;;;33.40;6.50;;;6.60;99.90;;;;;;5094726;28;20024;-72
2022/02/22 00:38:08;;;;;;;34.13;6.90;;;6.60;99.90;;;;;;5095140;28;20051;-74
2022/02/22 00:40:34;;;;;;;32.70;7.50;;;6.60;99.90;;;;;;5095148;28;20032;-72
2022/02/22 00:43:00;;;;;;;27.20;6.35;;;6.60;99.90;;;;;;5095403;28;20016;-73
2022/02/22 00:45:26;;;;;;;34.67;6.95;;;6.50;99.90;;;;;;5095080;28;20458;-74
2022/02/22 00:47:52;;;;;;;26.50;7.03;;;6.50;99.90;;;;;;5093764;28;20118;-72
2022/02/22 00:50:18;;;;;;;37.80;9.80;;;6.50;99.90;;;;;;5095296;28;20375;-73
2022/02/22 00:52:43;;;;;;;36.88;8.73;;;6.60;99.90;;;;;;5094919;28;20494;-74
2022/02/22 00:55:09;;;;;;;37.08;6.68;;;6.60;99.90;;;;;;5094762;28;20390;-73
2022/02/22 00:57:37;;;;;;;37.85;7.15;;;6.70;99.90;;;;;;5095039;28;20111;-72
2022/02/22 01:00:04;;;;;;;26.98;7.05;;;6.70;99.90;;;;;;5093495;28;20024;-73
2022/02/22 01:02:30;;;;;;;46.40;10.00;;;6.80;99.90;;;;;;5095277;28;20416;-73
2022/02/22 01:04:56;;;;;;;28.83;6.55;;;6.80;99.90;;;;;;5094469;28;20050;-73
2022/02/22 01:07:22;;;;;;;37.92;7.00;;;6.90;99.90;;;;;;5094923;28;20042;-74
2022/02/22 01:09:48;;;;;;;27.67;5.38;;;6.90;99.90;;;;;;5094658;28;20390;-74
2022/02/22 01:12:16;;;;;;;35.83;10.48;;;6.90;99.90;;;;;;5094787;28;20115;-73
2022/02/22 01:14:42;;;;;;;30.85;7.70;;;6.80;99.90;;;;;;5094516;28;20030;-73
2022/02/22 01:17:08;;;;;;;33.67;8.95;;;6.80;99.90;;;;;;5094388;28;20390;-74
2022/02/22 01:19:34;;;;;;;33.63;7.70;;;6.80;99.90;;;;;;5094380;28;20111;-73
2022/02/22 01:22:00;;;;;;;29.00;5.75;;;6.90;99.90;;;;;;5094406;28;20070;-72
2022/02/22 01:24:25;;;;;;;28.80;6.07;;;7.10;99.90;;;;;;5094366;28;20478;-72
2022/02/22 01:26:51;;;;;;;27.90;5.20;;;7.20;99.90;;;;;;5094544;28;20069;-72
2022/02/22 01:29:17;;;;;;;29.85;5.90;;;7.30;99.90;;;;;;5094554;28;20437;-73
2022/02/22 01:31:43;;;;;;;33.15;5.57;;;7.20;99.90;;;;;;5094194;28;20031;-73
2022/02/22 01:34:09;;;;;;;19.70;5.57;;;7.20;99.90;;;;;;5094156;28;20470;-73
2022/02/22 01:36:34;;;;;;;26.65;5.53;;;7.30;99.90;;;;;;5094314;28;20020;-72
2022/02/22 01:39:00;;;;;;;32.10;5.82;;;7.40;99.90;;;;;;5094072;28;20084;-72
2022/02/22 01:41:27;;;;;;;28.27;6.78;;;7.50;99.90;;;;;;5094031;28;20024;-73
2022/02/22 01:43:53;;;;;;;25.45;6.57;;;7.50;99.90;;;;;;5093944;28;20028;-73
2022/02/22 01:46:19;;;;;;;34.13;7.15;;;7.70;99.90;;;;;;5093553;28;20020;-72
2022/02/22 01:48:45;;;;;;;33.80;7.43;;;7.80;99.90;;;;;;5094077;28;20031;-72
2022/02/22 01:51:10;;;;;;;30.35;5.90;;;7.90;99.90;;;;;;5094394;28;20048;-74
2022/02/22 01:53:36;;;;;;;22.35;5.20;;;8.00;99.90;;;;;;5094074;28;20103;-73
2022/02/22 01:56:03;;;;;;;24.67;6.60;;;8.00;99.90;;;;;;5093876;28;20028;-74
2022/02/22 01:58:30;;;;;;;30.95;6.78;;;8.10;99.90;;;;;;5093693;28;20020;-73
2022/02/22 02:00:56;;;;;;;33.25;6.10;;;8.10;99.90;;;;;;5093658;28;20042;-72
2022/02/22 02:03:22;;;;;;;26.67;4.95;;;8.20;99.90;;;;;;5092393;28;20063;-74
2022/02/22 02:05:48;;;;;;;24.63;5.38;;;8.20;99.90;;;;;;5091851;28;20047;-74
2022/02/22 02:08:14;;;;;;;26.27;5.35;;;8.20;99.90;;;;;;5093841;28;20028;-72
2022/02/22 02:10:39;;;;;;;22.98;5.35;;;8.30;99.90;;;;;;5093539;28;20032;-72
2022/02/22 02:13:05;;;;;;;28.23;5.70;;;8.30;99.90;;;;;;5093461;28;20028;-74
2022/02/22 02:15:31;;;;;;;28.13;5.50;;;8.30;99.90;;;;;;5093459;28;20046;-73
2022/02/22 02:17:57;;;;;;;24.83;5.30;;;8.40;99.90;;;;;;5093613;28;20055;-73
2022/02/22 02:20:23;;;;;;;31.45;5.95;;;8.40;99.90;;;;;;5093318;28;20024;-73
2022/02/22 02:22:49;;;;;;;23.90;5.43;;;8.50;99.90;;;;;;5093384;28;20393;-73
2022/02/22 02:25:15;;;;;;;20.45;5.20;;;8.50;99.90;;;;;;5093557;28;20020;-73
2022/02/22 02:27:42;;;;;;;23.73;5.68;;;8.50;99.90;;;;;;5093285;28;20035;-73
2022/02/22 02:30:10;;;;;;;30.88;5.95;;;8.60;99.90;;;;;;5093220;28;20065;-73
2022/02/22 02:32:36;;;;;;;22.67;4.80;;;8.60;99.90;;;;;;5093213;28;20035;-73
2022/02/22 02:35:02;;;;;;;20.10;4.82;;;8.70;99.90;;;;;;5093228;28;20016;-73
2022/02/22 02:37:28;;;;;;;18.05;4.95;;;8.60;99.90;;;;;;5093084;28;20028;-74
2022/02/22 02:39:53;;;;;;;27.90;6.28;;;8.70;99.90;;;;;;5093138;28;20031;-74
2022/02/22 02:42:19;;;;;;;24.67;5.60;;;8.70;99.90;;;;;;5093133;28;20104;-73
2022/02/22 02:44:47;;;;;;;29.92;5.40;;;8.70;99.90;;;;;;5093183;28;20027;-73
2022/02/22 02:47:14;;;;;;;28.20;6.65;;;8.70;99.90;;;;;;5093420;28;20103;-73
2022/02/22 02:49:40;;;;;;;25.20;5.20;;;8.80;99.90;;;;;;5093635;28;20363;-73
2022/02/22 02:52:07;;;;;;;27.27;6.60;;;8.80;99.90;;;;;;5093060;28;20081;-73
2022/02/22 02:54:34;;;;;;;19.27;4.05;;;8.80;99.90;;;;;;5093383;28;20020;-74
2022/02/22 02:57:00;;;;;;;29.63;6.57;;;8.90;99.90;;;;;;5091708;28;20032;-72
2022/02/22 02:59:25;;;;;;;21.02;5.22;;;8.90;99.90;;;;;;5097428;28;20020;-73
2022/02/22 03:01:51;;;;;;;20.85;4.78;;;8.90;99.90;;;;;;5097350;28;20035;-73
2022/02/22 03:04:17;;;;;;;32.15;5.22;;;9.00;99.90;;;;;;5097008;28;20047;-73
2022/02/22 03:06:43;;;;;;;26.70;5.00;;;9.00;99.90;;;;;;5097299;28;20153;-73
2022/02/22 03:09:09;;;;;;;22.50;4.78;;;9.00;99.90;;;;;;5097166;28;20050;-73
2022/02/22 03:11:36;;;;;;;29.20;5.78;;;9.10;99.90;;;;;;5096883;28;20099;-72
2022/02/22 03:14:02;;;;;;;27.73;5.30;;;9.10;99.90;;;;;;5096853;28;20019;-73
2022/02/22 03:16:28;;;;;;;23.77;5.20;;;9.10;99.90;;;;;;5097273;28;20024;-73
2022/02/22 03:18:53;;;;;;;30.02;5.32;;;9.10;99.90;;;;;;5096995;28;20394;-73
2022/02/22 03:21:19;;;;;;;21.88;5.85;;;9.10;99.90;;;;;;5096764;28;20073;-73
2022/02/22 03:23:45;;;;;;;25.25;5.07;;;9.10;99.90;;;;;;5096711;28;20021;-73
2022/02/22 03:26:11;;;;;;;27.23;5.57;;;9.20;99.90;;;;;;5096627;28;20024;-73
2022/02/22 03:28:37;;;;;;;27.60;5.55;;;9.20;99.90;;;;;;5096633;28;20054;-72
2022/02/22 03:31:04;;;;;;;26.73;5.22;;;9.20;99.90;;;;;;5096538;28;20017;-74
2022/02/22 03:33:33;;;;;;;31.05;5.28;;;9.20;99.90;;;;;;5097051;28;20470;-73
2022/02/22 03:36:02;;;;;;;28.92;5.57;;;9.20;99.90;;;;;;5096370;28;20020;-72
2022/02/22 03:38:28;;;;;;;30.67;5.20;;;9.20;99.90;;;;;;5096385;28;20020;-72
2022/02/22 03:40:54;;;;;;;24.77;6.32;;;9.20;99.90;;;;;;5096323;28;20448;-72
2022/02/22 03:43:19;;;;;;;29.77;6.72;;;9.20;99.90;;;;;;5096285;28;20108;-72
2022/02/22 03:45:45;;;;;;;26.63;5.13;;;9.20;99.90;;;;;;5096788;28;20020;-72
2022/02/22 03:48:11;;;;;;;28.83;6.07;;;9.20;99.90;;;;;;5096499;28;20031;-73
2022/02/22 03:50:36;;;;;;;28.42;6.25;;;9.20;99.90;;;;;;5096416;28;20398;-74
2022/02/22 03:53:03;;;;;;;41.83;6.93;;;9.20;99.90;;;;;;5096417;28;20028;-74
2022/02/22 03:55:29;;;;;;;28.30;5.85;;;9.20;99.90;;;;;;5096265;28;20377;-73
2022/02/22 03:57:54;;;;;;;24.58;5.22;;;9.20;99.90;;;;;;5095889;28;20111;-72
2022/02/22 04:00:23;;;;;;;25.38;5.47;;;9.20;99.90;;;;;;5095986;28;20020;-73
2022/02/22 04:02:49;;;;;;;20.30;5.63;;;9.20;99.90;;;;;;5096240;28;20427;-73
2022/02/22 04:05:17;;;;;;;34.22;4.53;;;9.20;99.90;;;;;;5095691;28;20445;-73
2022/02/22 04:07:43;;;;;;;22.38;4.75;;;9.20;99.90;;;;;;5095860;28;20024;-74
2022/02/22 04:10:09;;;;;;;23.48;5.38;;;9.30;99.90;;;;;;5095507;28;20103;-73
2022/02/22 04:12:36;;;;;;;27.33;5.25;;;9.20;99.90;;;;;;5095757;28;20511;-73
2022/02/22 04:15:03;;;;;;;24.73;4.97;;;9.20;99.90;;;;;;5095711;28;20082;-73
2022/02/22 04:17:29;;;;;;;26.10;5.47;;;9.20;99.90;;;;;;5095899;28;20024;-73
2022/02/22 04:19:55;;;;;;;28.63;5.80;;;9.20;99.90;;;;;;5095630;28;20030;-72
2022/02/22 04:22:20;;;;;;;27.27;5.53;;;9.30;99.90;;;;;;5095841;28;20095;-73
2022/02/22 04:24:46;;;;;;;25.38;5.20;;;9.30;99.90;;;;;;5095754;28;20436;-72
2022/02/22 04:27:13;;;;;;;21.05;5.13;;;9.30;99.90;;;;;;5095513;28;20024;-74
2022/02/22 04:29:39;;;;;;;27.98;4.60;;;9.30;99.90;;;;;;5095734;28;20077;-73
2022/02/22 04:32:05;;;;;;;23.63;5.88;;;9.30;99.90;;;;;;5095429;28;20054;-73
2022/02/22 04:34:31;;;;;;;27.13;5.93;;;9.30;99.90;;;;;;5095355;28;20020;-72
2022/02/22 04:36:57;;;;;;;27.23;5.50;;;9.30;99.90;;;;;;5095207;28;20031;-72
2022/02/22 04:39:22;;;;;;;20.45;4.97;;;9.30;99.90;;;;;;5095231;28;20075;-72
2022/02/22 04:41:50;;;;;;;18.92;4.57;;;9.30;99.90;;;;;;5095429;28;20095;-73
2022/02/22 04:44:16;;;;;;;26.52;6.28;;;9.30;99.90;;;;;;5095157;28;20104;-72
2022/02/22 04:46:41;;;;;;;32.28;5.20;;;9.30;99.90;;;;;;5095125;28;20103;-72
2022/02/22 04:49:09;;;;;;;26.20;5.38;;;9.30;99.90;;;;;;5095086;28;20066;-73
2022/02/22 04:51:36;;;;;;;23.48;5.40;;;9.30;99.90;;;;;;5095003;28;20030;-74
2022/02/22 04:54:01;;;;;;;23.77;5.68;;;9.30;99.90;;;;;;5095402;28;20458;-74
2022/02/22 04:56:27;;;;;;;26.80;6.32;;;9.30;99.90;;;;;;5094852;28;20023;-72
2022/02/22 04:58:54;;;;;;;19.70;5.03;;;9.20;99.90;;;;;;5094822;28;20489;-73
2022/02/22 05:01:20;;;;;;;25.42;5.32;;;9.20;99.90;;;;;;5094840;28;20103;-73
2022/02/22 05:03:46;;;;;;;37.05;6.13;;;9.10;99.90;;;;;;5094576;28;20466;-73
2022/02/22 05:06:11;;;;;;;28.30;5.80;;;9.00;99.90;;;;;;5094955;28;20111;-73
2022/02/22 05:08:37;;;;;;;24.58;5.10;;;8.90;99.90;;;;;;5094940;28;20060;-73
2022/02/22 05:11:03;;;;;;;34.17;5.90;;;8.90;99.90;;;;;;5094811;28;20099;-73
2022/02/22 05:13:28;;;;;;;27.88;6.50;;;8.90;99.90;;;;;;5094614;28;20363;-74
2022/02/22 05:15:54;;;;;;;36.70;6.30;;;9.10;99.90;;;;;;5094470;28;20487;-73
2022/02/22 05:18:20;;;;;;;24.55;7.57;;;9.00;99.90;;;;;;5094705;28;20032;-74
2022/02/22 05:20:54;;;;;;;25.85;5.88;;;9.00;99.90;;;;;;5094060;28;20087;-73
2022/02/22 05:23:24;;;;;;;30.98;13.57;;;9.00;99.90;;;;;;5094679;28;20481;-72
2022/02/22 05:25:50;;;;;;;35.55;9.15;;;9.00;99.90;;;;;;5094414;28;20024;-73
2022/02/22 05:28:17;;;;;;;22.45;7.75;;;9.00;99.90;;;;;;5094561;28;20031;-72
2022/02/22 05:30:43;;;;;;;34.53;10.38;;;9.00;99.90;;;;;;5094239;28;20020;-72
2022/02/22 05:33:09;;;;;;;30.60;7.65;;;9.10;99.90;;;;;;5094174;28;20024;-73
2022/02/22 05:35:35;;;;;;;29.17;9.65;;;9.00;99.90;;;;;;5094167;28;20032;-73
2022/02/22 05:38:00;;;;;;;29.65;7.82;;;9.00;99.90;;;;;;5092704;28;20032;-74
2022/02/22 05:40:26;;;;;;;27.02;8.18;;;9.00;99.90;;;;;;5094059;28;20047;-72
2022/02/22 05:42:52;;;;;;;21.45;5.80;;;8.90;99.90;;;;;;5094035;28;20062;-74
2022/02/22 05:45:17;;;;;;;24.35;5.93;;;8.80;99.90;;;;;;5094223;28;20123;-73
2022/02/22 05:47:43;;;;;;;20.55;6.35;;;8.70;99.90;;;;;;5094453;28;20028;-72
2022/02/22 05:50:09;;;;;;;26.25;4.43;;;8.60;99.90;;;;;;5093905;28;20047;-74
2022/02/22 05:52:35;;;;;;;28.95;6.28;;;8.50;99.90;;;;;;5093861;28;20098;-73
2022/02/22 05:55:01;;;;;;;18.92;4.90;;;8.40;99.90;;;;;;5093718;28;20482;-72
2022/02/22 05:57:27;;;;;;;29.05;5.60;;;8.40;99.90;;;;;;5093711;28;20028;-72
2022/02/22 05:59:52;;;;;;;28.05;4.88;;;8.30;99.90;;;;;;5094010;28;20096;-74
2022/02/22 06:02:18;;;;;;;21.10;4.82;;;8.40;99.90;;;;;;5094217;28;20016;-73
2022/02/22 06:04:44;;;;;;;24.67;4.38;;;8.60;99.90;;;;;;5093536;28;20075;-74
2022/02/22 06:07:09;;;;;;;16.27;4.15;;;8.70;99.90;;;;;;5093840;28;20031;-73
2022/02/22 06:09:37;;;;;;;19.63;4.57;;;8.90;99.90;;;;;;5093806;28;20027;-72
2022/02/22 06:12:04;;;;;;;26.75;5.80;;;9.00;99.90;;;;;;5093556;28;20146;-74
2022/02/22 06:14:30;;;;;;;33.83;13.70;;;9.10;99.90;;;;;;5093495;28;20030;-74
2022/02/22 06:16:56;;;;;;;25.05;5.85;;;9.20;99.90;;;;;;5093621;28;20028;-72
2022/02/22 06:19:22;;;;;;;27.98;5.18;;;9.30;99.90;;;;;;5093475;28;20099;-72
2022/02/22 06:21:48;;;;;;;20.90;5.95;;;9.30;99.90;;;;;;5093625;28;20488;-73
2022/02/22 06:24:14;;;;;;;24.13;6.97;;;9.40;99.90;;;;;;5093304;28;20114;-74
2022/02/22 06:26:39;;;;;;;23.08;5.72;;;9.40;99.90;;;;;;5093598;28;20027;-73
2022/02/22 06:29:05;;;;;;;22.65;5.40;;;9.40;99.90;;;;;;5093769;28;20386;-73
2022/02/22 06:31:31;;;;;;;25.15;6.63;;;9.40;99.90;;;;;;5093242;28;20031;-73
2022/02/22 06:33:57;;;;;;;29.55;6.95;;;9.40;99.90;;;;;;5093191;28;20390;-73
2022/02/22 06:36:22;;;;;;;31.25;6.90;;;9.40;99.90;;;;;;5093367;28;20059;-72
2022/02/22 06:38:50;;;;;;;32.80;6.53;;;9.40;99.90;;;;;;5093210;28;20545;-73
2022/02/22 06:41:15;;;;;;;26.88;5.90;;;9.50;99.90;;;;;;5093154;28;20048;-73
2022/02/22 06:43:41;;;;;;;26.92;6.47;;;9.50;99.90;;;;;;5093112;28;20055;-73
2022/02/22 06:46:07;;;;;;;24.98;6.15;;;9.50;99.90;;;;;;5093050;28;20035;-73
2022/02/22 06:48:33;;;;;;;24.35;6.43;;;9.50;99.90;;;;;;5093166;28;20049;-72
2022/02/22 06:50:59;;;;;;;27.10;5.75;;;9.50;99.90;;;;;;5093091;28;20494;-73
2022/02/22 06:53:24;;;;;;;30.10;5.88;;;9.60;99.90;;;;;;5092997;28;20027;-73
2022/02/22 06:55:50;;;;;;;20.65;5.68;;;9.60;99.90;;;;;;5092840;28;20029;-72
2022/02/22 06:58:15;;;;;;;22.38;5.75;;;9.60;99.90;;;;;;5093170;28;20028;-74
2022/02/22 07:00:43;;;;;;;25.23;5.25;;;9.60;99.90;;;;;;5093032;28;20024;-73
2022/02/22 07:03:10;;;;;;;25.00;7.03;;;9.60;99.90;;;;;;5092976;28;20046;-73
2022/02/22 07:05:36;;;;;;;28.77;6.50;;;9.60;99.90;;;;;;5092804;28;20117;-72
2022/02/22 07:08:03;;;;;;;22.05;5.65;;;9.70;99.90;;;;;;5092936;28;20031;-73
2022/02/22 07:10:29;;;;;;;22.92;5.15;;;9.70;99.90;;;;;;5093152;28;20111;-73
2022/02/22 07:12:55;;;;;;;18.55;5.07;;;9.70;99.90;;;;;;5092899;28;20032;-73
2022/02/22 07:15:21;;;;;;;30.77;6.47;;;9.80;99.90;;;;;;5093402;28;20028;-73
2022/02/22 07:17:55;;;;;;;27.20;6.05;;;9.80;99.90;;;;;;5092764;28;20020;-72
2022/02/22 07:20:22;;;;;;;23.15;7.15;;;9.80;99.90;;;;;;5093153;28;20016;-73
2022/02/22 07:22:48;;;;;;;27.55;6.95;;;9.90;99.90;;;;;;5092698;28;20014;-73
2022/02/22 07:25:17;;;;;;;22.95;5.93;;;9.90;99.90;;;;;;5093044;28;20383;-72
2022/02/22 07:27:44;;;;;;;28.08;6.57;;;10.00;99.90;;;;;;5092701;28;20103;-73
2022/02/22 07:30:12;;;;;;;38.72;18.92;;;10.00;99.90;;;;;;5092973;28;20028;-73
2022/02/22 07:32:38;;;;;;;26.13;6.40;;;10.10;99.90;;;;;;5092948;28;20023;-73
2022/02/22 07:35:08;;;;;;;27.45;7.63;;;10.10;99.90;;;;;;5092660;28;20036;-74
2022/02/22 07:37:39;;;;;;;24.17;6.13;;;10.10;99.90;;;;;;5092640;28;20193;-73
2022/02/22 07:40:06;;;;;;;25.58;8.38;;;10.20;99.90;;;;;;5092961;28;20100;-73
2022/02/22 07:42:32;;;;;;;22.73;5.78;;;10.30;99.90;;;;;;5092645;28;20020;-73
2022/02/22 07:44:58;;;;;;;22.35;6.28;;;10.40;99.90;;;;;;5095708;28;20504;-72
2022/02/22 07:47:23;;;;;;;20.63;8.20;;;10.40;99.90;;;;;;5096176;28;20031;-73
2022/02/22 07:49:49;;;;;;;19.10;5.07;;;10.50;99.90;;;;;;5096183;28;20032;-73
2022/02/22 07:52:15;;;;;;;26.40;8.70;;;10.50;99.90;;;;;;5096142;28;20024;-73
2022/02/22 07:54:40;;;;;;;20.25;5.90;;;10.60;99.90;;;;;;5099881;28;20036;-74
2022/02/22 07:57:06;;;;;;;19.17;5.55;;;10.60;99.90;;;;;;5096995;28;20028;-74
2022/02/22 07:59:32;;;;;;;22.15;6.57;;;10.70;99.90;;;;;;5096573;28;20020;-72
2022/02/22 08:01:57;;;;;;;17.20;6.32;;;10.70;99.90;;;;;;5108009;28;20024;-72
2022/02/22 08:04:27;;;;;;;15.45;5.18;;;10.70;99.90;;;;;;5095709;28;20040;-72
2022/02/22 08:06:59;;;;;;;21.13;6.40;;;10.80;99.90;;;;;;5105971;28;20019;-73
2022/02/22 08:09:25;;;;;;;22.98;7.57;;;10.80;99.90;;;;;;5114903;28;20039;-73
2022/02/22 08:11:52;;;;;;;17.90;5.47;;;10.90;99.90;;;;;;5116192;28;20019;-74
2022/02/22 08:14:17;;;;;;;17.00;6.93;;;10.90;99.90;;;;;;5116076;28;20023;-74
2022/02/22 08:16:44;;;;;;;29.05;10.50;;;11.00;99.90;;;;;;5115974;28;20049;-76
2022/02/22 08:19:10;;;;;;;39.97;15.10;;;11.00;99.90;;;;;;5104781;28;20035;-74
2022/02/22 08:21:36;;;;;;;20.48;5.75;;;11.00;99.90;;;;;;5095610;28;20024;-75
2022/02/22 08:24:02;;;;;;;31.70;13.45;;;11.10;99.90;;;;;;5094233;28;20024;-71
2022/02/22 08:26:28;;;;;;;21.58;7.82;;;11.10;99.90;;;;;;5095774;28;20035;-73
2022/02/22 08:28:54;;;;;;;18.10;6.03;;;11.30;99.90;;;;;;5095415;28;20483;-73
2022/02/22 08:31:19;;;;;;;22.75;5.40;;;11.40;99.90;;;;;;5095356;28;20021;-75
2022/02/22 08:33:45;;;;;;;18.52;4.93;;;11.40;99.90;;;;;;5095390;28;20482;-75
2022/02/22 08:36:12;;;;;;;14.25;4.25;;;11.50;99.90;;;;;;5095368;28;20054;-77
2022/02/22 08:38:39;;;;;;;16.98;6.32;;;11.60;99.90;;;;;;5095367;28;20057;-75
2022/02/22 08:41:06;;;;;;;13.38;5.00;;;11.60;99.90;;;;;;5095295;28;20025;-76
2022/02/22 08:43:33;;;;;;;14.75;4.95;;;11.60;99.90;;;;;;5095218;28;20028;-73
2022/02/22 08:46:01;;;;;;;17.02;4.03;;;11.70;99.90;;;;;;5095122;28;20013;-73
2022/02/22 08:48:27;;;;;;;13.38;4.57;;;11.70;99.90;;;;;;5095121;28;20024;-74
2022/02/22 08:50:53;;;;;;;21.17;6.43;;;11.80;99.90;;;;;;5095051;28;20107;-75
2022/02/22 08:53:19;;;;;;;14.18;4.30;;;11.90;99.90;;;;;;5094940;28;20034;-76
2022/02/22 08:55:45;;;;;;;15.52;3.90;;;11.90;99.90;;;;;;5094066;28;20107;-75
2022/02/22 08:58:11;;;;;;;13.93;5.07;;;11.90;99.90;;;;;;5094756;28;20535;-75
2022/02/22 09:00:37;;;;;;;13.02;4.40;;;11.90;99.90;;;;;;5094697;28;20111;-74
2022/02/22 09:03:03;;;;;;;15.10;4.03;;;12.00;99.90;;;;;;5093729;28;20099;-73
2022/02/22 09:05:30;;;;;;;11.73;3.97;;;12.10;99.90;;;;;;5095106;28;20043;-73
2022/02/22 09:07:57;;;;;;;15.50;5.20;;;12.10;99.90;;;;;;5094469;28;20079;-71
2022/02/22 09:10:23;;;;;;;15.75;4.10;;;12.20;99.90;;;;;;5094594;28;20020;-74
2022/02/22 09:12:50;;;;;;;13.25;3.88;;;12.40;99.90;;;;;;5100611;28;20454;-69
2022/02/22 09:15:17;;;;;;;12.88;4.00;;;12.60;99.90;;;;;;5115411;27;20015;-72
2022/02/22 09:17:44;;;;;;;11.05;3.60;;;12.80;99.90;;;;;;5110145;28;20032;-73
2022/02/22 09:20:13;;;;;;;12.93;3.50;;;13.00;99.90;;;;;;5107315;28;20011;-73
2022/02/22 09:22:39;;;;;;;12.25;3.13;;;13.00;99.90;;;;;;5115325;28;20458;-75
2022/02/22 09:25:07;;;;;;;15.30;3.40;;;13.00;99.90;;;;;;5104069;28;20047;-73
2022/02/22 09:27:32;;;;;;;8.07;3.13;;;13.00;99.90;;;;;;5094189;28;20039;-72
2022/02/22 09:29:59;;;;;;;8.68;2.88;;;13.00;99.90;;;;;;5105034;28;20393;-73
2022/02/22 09:32:25;;;;;;;6.65;1.90;;;12.90;99.90;;;;;;5114537;28;20031;-75
2022/02/22 09:34:51;;;;;;;9.32;3.30;;;13.00;99.90;;;;;;5114954;28;20020;-74
2022/02/22 09:37:17;;;;;;;10.20;4.55;;;13.10;99.90;;;;;;5114127;28;20115;-77
2022/02/22 09:39:43;;;;;;;13.10;4.28;;;13.20;99.90;;;;;;5112156;28;20044;-71
2022/02/22 09:42:10;;;;;;;8.80;3.05;;;13.30;99.90;;;;;;5113872;28;20393;-75
2022/02/22 09:44:36;;;;;;;8.00;2.35;;;13.20;99.90;;;;;;5093321;28;20509;-74
2022/02/22 09:47:04;;;;;;;8.02;2.35;;;13.40;99.90;;;;;;5094191;28;20575;-75
2022/02/22 09:49:29;;;;;;;5.88;1.83;;;13.60;99.90;;;;;;5094246;28;20047;-74
2022/02/22 09:51:55;;;;;;;7.03;1.80;;;13.70;99.90;;;;;;5102142;28;20073;-74
2022/02/22 09:54:22;;;;;;;3.53;1.67;;;13.60;99.90;;;;;;5113725;28;20036;-74
2022/02/22 09:56:48;;;;;;;7.95;1.98;;;13.40;99.90;;;;;;5114040;28;20106;-74
2022/02/22 09:59:15;;;;;;;5.40;1.70;;;13.20;99.90;;;;;;5113456;28;20090;-74
2022/02/22 10:01:42;;;;;;;3.97;1.83;;;13.20;99.90;;;;;;5113978;27;20072;-74
2022/02/22 10:04:09;;;;;;;6.07;2.13;;;13.40;99.90;;;;;;5106262;28;20444;-75
2022/02/22 10:06:35;;;;;;;6.75;2.45;;;13.80;99.90;;;;;;5093389;28;20024;-74
2022/02/22 10:09:02;;;;;;;7.97;2.17;;;14.30;99.90;;;;;;5100548;28;20039;-73
2022/02/22 10:11:27;;;;;;;11.15;3.70;;;14.60;99.90;;;;;;5114565;28;20035;-73
2022/02/22 10:13:53;;;;;;;7.55;2.30;;;14.60;99.90;;;;;;5113882;28;20020;-75
2022/02/22 10:16:19;;;;;;;9.50;2.88;;;14.50;99.90;;;;;;5114140;28;20103;-73
2022/02/22 10:18:52;;;;;;;9.15;2.83;;;14.40;99.90;;;;;;5109472;28;20081;-73
2022/02/22 10:21:20;;;;;;;8.95;2.65;;;14.30;99.90;;;;;;5099026;28;20644;-73
2022/02/22 10:23:46;;;;;;;10.23;4.65;;;14.20;99.90;;;;;;5111975;28;20106;-73
2022/02/22 10:26:29;;;;;;;11.68;4.68;;;14.40;99.90;;;;;;5112103;28;20098;-73
2022/02/22 10:28:55;;;;;;;11.02;5.40;;;14.80;99.90;;;;;;5107626;28;20028;-73
2022/02/22 10:31:35;;;;;;;8.48;3.47;;;15.10;99.90;;;;;;5092462;28;20405;-73
2022/02/22 10:34:01;;;;;;;15.50;3.47;;;15.20;99.90;;;;;;5092052;28;20406;-73
2022/02/22 10:36:37;;;;;;;9.57;3.00;;;15.50;99.90;;;;;;5091383;28;20020;-73
2022/02/22 10:39:08;;;;;;;9.30;2.33;;;16.10;99.90;;;;;;5091392;28;20463;-73
2022/02/22 10:41:39;;;;;;;6.60;2.00;;;17.70;99.90;;;;;;5093499;28;20024;-74
2022/02/22 10:44:06;;;;;;;4.40;1.77;;;22.20;99.90;;;;;;5093153;28;20502;-72
2022/02/22 10:46:35;;;;;;;5.28;1.63;;;24.00;99.90;;;;;;5104767;28;20393;-72
2022/02/22 10:49:13;;;;;;;5.93;2.00;;;23.10;99.90;;;;;;5092739;28;20020;-73
2022/02/22 10:51:45;;;;;;;6.30;1.77;;;22.40;99.90;;;;;;5091972;28;20086;-73
2022/02/22 10:54:21;;;;;;;6.53;1.90;;;22.60;99.90;;;;;;5090914;28;20016;-73
2022/02/22 10:56:47;;;;;;;5.40;2.08;;;26.20;99.90;;;;;;5106563;28;20116;-72
2022/02/22 10:59:13;;;;;;;5.13;2.00;;;25.20;98.70;;;;;;5112084;28;20031;-71
2022/02/22 11:01:39;;;;;;;5.80;1.83;;;23.40;99.90;;;;;;5112478;28;20020;-70
2022/02/22 11:04:06;;;;;;;8.55;2.20;;;21.80;99.90;;;;;;5108311;28;20503;-72
2022/02/22 11:06:32;;;;;;;6.40;2.20;;;20.80;99.90;;;;;;5098874;28;20027;-70
2022/02/22 11:09:00;;;;;;;8.23;2.10;;;19.60;99.90;;;;;;5092734;28;20508;-71
2022/02/22 11:11:35;;;;;;;6.65;2.13;;;18.50;99.90;;;;;;5092799;28;20110;-72
2022/02/22 11:14:14;;;;;;;9.43;3.33;;;18.30;99.90;;;;;;5093462;28;20024;-73
2022/02/22 11:16:48;;;;;;;7.13;2.45;;;18.50;99.90;;;;;;5092761;28;20031;-73
2022/02/22 11:19:26;;;;;;;10.93;2.45;;;18.00;99.90;;;;;;5095237;28;20031;-74
2022/02/22 11:21:55;;;;;;;7.07;2.03;;;17.40;99.90;;;;;;5097527;28;20020;-74
2022/02/22 11:24:22;;;;;;;7.45;1.90;;;17.10;99.90;;;;;;5107054;28;20032;-72
2022/02/22 11:26:48;;;;;;;7.72;2.20;;;17.30;99.90;;;;;;5118059;28;20385;-75
2022/02/22 11:29:14;;;;;;;7.05;2.10;;;17.30;99.90;;;;;;5116821;28;20028;-72
2022/02/22 11:31:40;;;;;;;8.45;3.22;;;17.70;99.90;;;;;;5094506;28;20077;-67
2022/02/22 11:34:06;;;;;;;6.90;2.22;;;19.50;99.90;;;;;;5094863;28;20471;-71
2022/02/22 11:36:35;;;;;;;9.68;2.00;;;19.90;99.90;;;;;;5095091;28;20103;-73
2022/02/22 11:39:03;;;;;;;11.32;2.70;;;18.80;99.90;;;;;;5096123;28;20027;-71
2022/02/22 11:41:37;;;;;;;23.23;3.80;;;18.00;99.90;;;;;;5096118;28;20016;-71
2022/02/22 11:44:05;;;;;;;10.15;2.45;;;17.50;99.90;;;;;;5096010;28;20028;-72
2022/02/22 11:46:41;;;;;;;12.23;2.80;;;17.20;99.90;;;;;;5096348;28;20020;-72
2022/02/22 11:49:09;;;;;;;9.82;2.53;;;16.70;99.90;;;;;;5096455;28;20394;-70
2022/02/22 11:51:42;;;;;;;11.40;2.42;;;16.50;99.90;;;;;;5096157;28;20024;-71
2022/02/22 11:54:19;;;;;;;8.50;2.53;;;16.50;99.90;;;;;;5096608;28;20023;-72
2022/02/22 11:56:46;;;;;;;11.75;2.85;;;16.40;99.90;;;;;;5096342;28;20032;-70
2022/02/22 11:59:20;;;;;;;9.73;3.28;;;16.10;99.90;;;;;;5096068;28;20012;-71
2022/02/22 12:01:55;;;;;;;10.50;3.08;;;15.90;99.90;;;;;;5096384;28;20020;-72
2022/02/22 12:04:26;;;;;;;12.93;3.03;;;15.60;99.90;;;;;;5096000;28;20044;-74
2022/02/22 12:06:54;;;;;;;13.07;3.13;;;15.50;99.90;;;;;;5095921;28;20024;-73
2022/02/22 12:09:42;;;;;;;11.05;2.83;;;15.30;99.90;;;;;;5096220;28;20114;-71
2022/02/22 12:12:10;;;;;;;10.65;2.80;;;15.20;99.90;;;;;;5096159;28;20486;-71
2022/02/22 12:14:38;;;;;;;8.77;3.15;;;15.20;99.90;;;;;;5095752;28;20474;-72
2022/02/22 12:17:12;;;;;;;10.20;3.42;;;15.30;99.90;;;;;;5095682;28;20020;-74
2022/02/22 12:19:40;;;;;;;12.93;3.08;;;15.30;99.90;;;;;;5096054;28;20024;-70
2022/02/22 12:22:06;;;;;;;9.10;2.83;;;15.30;99.90;;;;;;5095666;28;20486;-73
2022/02/22 12:24:32;;;;;;;8.07;2.65;;;15.40;99.90;;;;;;5095898;28;20027;-72
2022/02/22 12:27:09;;;;;;;12.73;2.88;;;15.60;99.90;;;;;;5095557;28;20024;-70
2022/02/22 12:29:35;;;;;;;13.43;2.85;;;15.60;99.90;;;;;;5095326;28;20030;-70
2022/02/22 12:32:02;;;;;;;8.52;3.08;;;15.50;99.90;;;;;;5095428;28;20028;-70
2022/02/22 12:34:30;;;;;;;12.18;3.15;;;15.40;99.90;;;;;;5095430;28;20081;-72
2022/02/22 12:36:58;;;;;;;12.80;3.88;;;15.40;99.90;;;;;;5095622;28;20019;-70
2022/02/22 12:39:29;;;;;;;16.38;4.93;;;15.50;99.90;;;;;;5095404;28;20020;-72
2022/02/22 12:41:57;;;;;;;10.65;4.20;;;15.70;99.90;;;;;;5095727;28;20482;-70